sensor_id;sensor_type;location;lat;lon;timestamp;temperature;humidity
70947;DHT22;58605;48.700;8.760;2023-02-24T00:01:14;8.50;99.90
70947;DHT22;58605;48.700;8.760;2023-02-24T00:03:50;8.50;99.90
70947;DHT22;58605;48.700;8.760;2023-02-24T00:06:16;8.50;99.90
70947;DHT22;58605;48.700;8.760;2023-02-24T00:08:42;8.50;99.90
70947;DHT22;58605;48.700;8.760;2023-02-24T00:11:10;8.50;99.90
70947;DHT22;58605;48.700;8.760;2023-02-24T00:13:40;8.50;99.90
70947;DHT22;58605;48.700;8.760;2023-02-24T00:16:14;8.60;99.90
70947;DHT22;58605;48.700;8.760;2023-02-24T00:18:44;8.60;99.90
70947;DHT22;58605;48.700;8.760;2023-02-24T00:21:12;8.70;99.90
70947;DHT22;58605;48.700;8.760;2023-02-24T00:23:40;8.70;99.90
70947;DHT22;58605;48.700;8.760;2023-02-24T00:26:08;8.70;99.90
70947;DHT22;58605;48.700;8.760;2023-02-24T00:28:36;8.60;99.90
70947;DHT22;58605;48.700;8.760;2023-02-24T00:31:03;8.70;99.90
70947;DHT22;58605;48.700;8.760;2023-02-24T00:33:32;8.70;99.90
70947;DHT22;58605;48.700;8.760;2023-02-24T00:36:07;8.70;99.90
70947;DHT22;58605;48.700;8.760;2023-02-24T00:38:33;8.60;99.90
70947;DHT22;58605;48.700;8.760;2023-02-24T00:41:06;8.60;99.90
70947;DHT22;58605;48.700;8.760;2023-02-24T00:43:32;8.70;99.90
70947;DHT22;58605;48.700;8.760;2023-02-24T00:46:02;8.60;99.90
70947;DHT22;58605;48.700;8.760;2023-02-24T00:48:29;8.60;99.90
70947;DHT22;58605;48.700;8.760;2023-02-24T00:51:00;8.60;99.90
70947;DHT22;58605;48.700;8.760;2023-02-24T00:53:26;8.70;99.90
70947;DHT22;58605;48.700;8.760;2023-02-24T00:55:58;8.70;99.90
70947;DHT22;58605;48.700;8.760;2023-02-24T00:58:24;8.70;99.90
70947;DHT22;58605;48.700;8.760;2023-02-24T01:00:54;8.60;99.90
70947;DHT22;58605;48.700;8.760;2023-02-24T01:03:21;8.70;99.90
70947;DHT22;58605;48.700;8.760;2023-02-24T01:05:47;8.70;99.90
70947;DHT22;58605;48.700;8.760;2023-02-24T01:08:14;8.60;99.90
70947;DHT22;58605;48.700;8.760;2023-02-24T01:10:54;8.60;99.90
70947;DHT22;58605;48.700;8.760;2023-02-24T01:13:40;8.50;99.90
70947;DHT22;58605;48.700;8.760;2023-02-24T01:16:06;8.40;99.90
70947;DHT22;58605;48.700;8.760;2023-02-24T01:18:33;8.40;99.90
70947;DHT22;58605;48.700;8.760;2023-02-24T01:21:07;8.50;99.90
70947;DHT22;58605;48.700;8.760;2023-02-24T01:23:34;8.40;99.90
70947;DHT22;58605;48.700;8.760;2023-02-24T01:26:08;8.40;99.90
70947;DHT22;58605;48.700;8.760;2023-02-24T01:28:41;8.50;99.90
70947;DHT22;58605;48.700;8.760;2023-02-24T01:31:07;8.60;99.90
70947;DHT22;58605;48.700;8.760;2023-02-24T01:33:34;8.80;99.90
70947;DHT22;58605;48.700;8.760;2023-02-24T01:36:08;8.80;99.90
70947;DHT22;58605;48.700;8.760;2023-02-24T01:38:36;8.90;99.90
70947;DHT22;58605;48.700;8.760;2023-02-24T01:41:05;8.80;99.90
70947;DHT22;58605;48.700;8.760;2023-02-24T01:43:32;8.70;99.90
70947;DHT22;58605;48.700;8.760;2023-02-24T01:45:58;8.70;99.90
70947;DHT22;58605;48.700;8.760;2023-02-24T01:48:25;8.60;99.90
70947;DHT22;58605;48.700;8.760;2023-02-24T01:50:52;8.50;99.90
70947;DHT22;58605;48.700;8.760;2023-02-24T01:53:18;8.40;99.90
70947;DHT22;58605;48.700;8.760;2023-02-24T01:55:47;8.40;99.90
70947;DHT22;58605;48.700;8.760;2023-02-24T01:58:19;8.40;99.90
70947;DHT22;58605;48.700;8.760;2023-02-24T02:00:48;8.40;99.90
70947;DHT22;58605;48.700;8.760;2023-02-24T02:03:23;8.40;99.90
70947;DHT22;58605;48.700;8.760;2023-02-24T02:05:50;8.50;99.90
70947;DHT22;58605;48.700;8.760;2023-02-24T02:08:18;8.60;99.90
70947;DHT22;58605;48.700;8.760;2023-02-24T02:10:45;8.70;99.90
70947;DHT22;58605;48.700;8.760;2023-02-24T02:13:14;8.70;99.90
70947;DHT22;58605;48.700;8.760;2023-02-24T02:15:55;8.70;99.90
70947;DHT22;58605;48.700;8.760;2023-02-24T02:18:31;8.70;99.90
70947;DHT22;58605;48.700;8.760;2023-02-24T02:21:35;9.00;99.90
70947;DHT22;58605;48.700;8.760;2023-02-24T02:24:26;8.90;99.90
70947;DHT22;58605;48.700;8.760;2023-02-24T02:33:42;8.50;99.90
70947;DHT22;58605;48.700;8.760;2023-02-24T02:36:12;8.40;99.90
70947;DHT22;58605;48.700;8.760;2023-02-24T02:38:51;8.30;99.90
70947;DHT22;58605;48.700;8.760;2023-02-24T02:41:22;8.30;99.90
70947;DHT22;58605;48.700;8.760;2023-02-24T02:43:54;8.20;99.90
70947;DHT22;58605;48.700;8.760;2023-02-24T02:46:25;8.10;99.90
70947;DHT22;58605;48.700;8.760;2023-02-24T02:49:04;8.10;99.90
70947;DHT22;58605;48.700;8.760;2023-02-24T02:51:37;8.00;99.90
70947;DHT22;58605;48.700;8.760;2023-02-24T02:54:10;8.10;99.90
70947;DHT22;58605;48.700;8.760;2023-02-24T02:56:42;8.10;99.90
70947;DHT22;58605;48.700;8.760;2023-02-24T02:59:10;8.00;99.90
70947;DHT22;58605;48.700;8.760;2023-02-24T03:01:39;8.00;99.90
70947;DHT22;58605;48.700;8.760;2023-02-24T03:04:12;7.90;99.90
70947;DHT22;58605;48.700;8.760;2023-02-24T03:06:45;7.90;99.90
70947;DHT22;58605;48.700;8.760;2023-02-24T03:09:16;7.90;99.90
70947;DHT22;58605;48.700;8.760;2023-02-24T03:11:48;7.80;99.90
70947;DHT22;58605;48.700;8.760;2023-02-24T03:14:22;7.80;99.90
70947;DHT22;58605;48.700;8.760;2023-02-24T03:16:49;7.80;99.90
70947;DHT22;58605;48.700;8.760;2023-02-24T03:19:19;7.80;99.90
70947;DHT22;58605;48.700;8.760;2023-02-24T03:21:54;7.90;99.90
70947;DHT22;58605;48.700;8.760;2023-02-24T03:24:22;8.00;99.90
70947;DHT22;58605;48.700;8.760;2023-02-24T03:26:50;8.10;99.90
70947;DHT22;58605;48.700;8.760;2023-02-24T03:29:21;8.20;99.90
70947;DHT22;58605;48.700;8.760;2023-02-24T03:31:50;8.20;99.90
70947;DHT22;58605;48.700;8.760;2023-02-24T03:34:23;8.30;99.90
70947;DHT22;58605;48.700;8.760;2023-02-24T03:36:53;8.30;99.90
70947;DHT22;58605;48.700;8.760;2023-02-24T03:39:20;8.30;99.90
70947;DHT22;58605;48.700;8.760;2023-02-24T03:41:52;8.30;99.90
70947;DHT22;58605;48.700;8.760;2023-02-24T03:44:21;8.30;99.90
70947;DHT22;58605;48.700;8.760;2023-02-24T03:46:49;8.40;99.90
70947;DHT22;58605;48.700;8.760;2023-02-24T03:49:16;8.40;99.90
70947;DHT22;58605;48.700;8.760;2023-02-24T03:51:51;8.40;99.90
70947;DHT22;58605;48.700;8.760;2023-02-24T03:54:32;8.40;99.90
70947;DHT22;58605;48.700;8.760;2023-02-24T03:57:13;8.50;99.90
70947;DHT22;58605;48.700;8.760;2023-02-24T03:59:46;8.60;99.90
70947;DHT22;58605;48.700;8.760;2023-02-24T04:02:22;8.70;99.90
70947;DHT22;58605;48.700;8.760;2023-02-24T04:04:53;8.60;99.90
70947;DHT22;58605;48.700;8.760;2023-02-24T04:07:34;8.60;99.90
70947;DHT22;58605;48.700;8.760;2023-02-24T04:10:05;8.40;99.90
70947;DHT22;58605;48.700;8.760;2023-02-24T04:12:39;8.30;99.90
70947;DHT22;58605;48.700;8.760;2023-02-24T04:15:12;8.10;99.90
70947;DHT22;58605;48.700;8.760;2023-02-24T04:17:43;8.10;99.90
70947;DHT22;58605;48.700;8.760;2023-02-24T04:20:13;8.00;99.90
70947;DHT22;58605;48.700;8.760;2023-02-24T04:22:49;8.00;99.90
70947;DHT22;58605;48.700;8.760;2023-02-24T04:25:18;7.90;99.90
70947;DHT22;58605;48.700;8.760;2023-02-24T04:27:49;7.90;99.90
70947;DHT22;58605;48.700;8.760;2023-02-24T04:30:17;7.80;99.90
70947;DHT22;58605;48.700;8.760;2023-02-24T04:32:45;7.70;99.90
70947;DHT22;58605;48.700;8.760;2023-02-24T04:35:13;7.70;99.90
70947;DHT22;58605;48.700;8.760;2023-02-24T04:37:40;7.70;99.90
70947;DHT22;58605;48.700;8.760;2023-02-24T04:40:12;7.70;99.90
70947;DHT22;58605;48.700;8.760;2023-02-24T04:42:41;7.70;99.90
70947;DHT22;58605;48.700;8.760;2023-02-24T04:45:17;7.70;99.90
70947;DHT22;58605;48.700;8.760;2023-02-24T04:47:44;7.80;99.90
70947;DHT22;58605;48.700;8.760;2023-02-24T04:50:12;7.80;99.90
70947;DHT22;58605;48.700;8.760;2023-02-24T04:52:48;7.80;99.90
70947;DHT22;58605;48.700;8.760;2023-02-24T04:55:16;7.80;99.90
70947;DHT22;58605;48.700;8.760;2023-02-24T04:57:43;7.90;99.90
70947;DHT22;58605;48.700;8.760;2023-02-24T05:00:12;7.80;99.90
70947;DHT22;58605;48.700;8.760;2023-02-24T05:02:47;7.90;99.90
70947;DHT22;58605;48.700;8.760;2023-02-24T05:05:13;7.90;99.90
70947;DHT22;58605;48.700;8.760;2023-02-24T05:07:39;8.00;99.90
70947;DHT22;58605;48.700;8.760;2023-02-24T05:10:06;8.00;99.90
70947;DHT22;58605;48.700;8.760;2023-02-24T05:12:33;8.00;99.90
70947;DHT22;58605;48.700;8.760;2023-02-24T05:14:59;8.10;99.90
70947;DHT22;58605;48.700;8.760;2023-02-24T05:17:26;8.10;99.90
70947;DHT22;58605;48.700;8.760;2023-02-24T05:19:51;8.10;99.90
70947;DHT22;58605;48.700;8.760;2023-02-24T05:22:36;8.10;99.90
70947;DHT22;58605;48.700;8.760;2023-02-24T05:25:02;8.00;99.90
70947;DHT22;58605;48.700;8.760;2023-02-24T05:27:29;8.00;99.90
70947;DHT22;58605;48.700;8.760;2023-02-24T05:29:57;8.00;99.90
70947;DHT22;58605;48.700;8.760;2023-02-24T05:32:22;8.00;99.90
70947;DHT22;58605;48.700;8.760;2023-02-24T05:34:49;8.00;99.90
70947;DHT22;58605;48.700;8.760;2023-02-24T05:37:15;8.10;99.90
70947;DHT22;58605;48.700;8.760;2023-02-24T05:39:41;8.10;99.90
70947;DHT22;58605;48.700;8.760;2023-02-24T05:42:07;8.30;99.90
70947;DHT22;58605;48.700;8.760;2023-02-24T05:44:34;8.40;99.90
70947;DHT22;58605;48.700;8.760;2023-02-24T05:47:02;8.50;99.90
70947;DHT22;58605;48.700;8.760;2023-02-24T05:49:31;8.60;99.90
70947;DHT22;58605;48.700;8.760;2023-02-24T05:51:59;8.60;99.90
70947;DHT22;58605;48.700;8.760;2023-02-24T05:54:28;8.60;99.90
70947;DHT22;58605;48.700;8.760;2023-02-24T05:56:56;8.70;99.90
70947;DHT22;58605;48.700;8.760;2023-02-24T05:59:23;8.80;99.90
70947;DHT22;58605;48.700;8.760;2023-02-24T06:01:49;8.80;99.90
70947;DHT22;58605;48.700;8.760;2023-02-24T06:04:20;9.00;99.90
70947;DHT22;58605;48.700;8.760;2023-02-24T06:06:52;8.90;99.90
70947;DHT22;58605;48.700;8.760;2023-02-24T06:09:19;8.80;99.90
70947;DHT22;58605;48.700;8.760;2023-02-24T06:11:48;8.70;99.90
70947;DHT22;58605;48.700;8.760;2023-02-24T06:14:14;8.70;99.90
70947;DHT22;58605;48.700;8.760;2023-02-24T06:16:41;8.70;99.90
70947;DHT22;58605;48.700;8.760;2023-02-24T06:19:11;8.70;99.90
70947;DHT22;58605;48.700;8.760;2023-02-24T06:21:40;8.70;99.90
70947;DHT22;58605;48.700;8.760;2023-02-24T06:24:08;8.80;99.90
70947;DHT22;58605;48.700;8.760;2023-02-24T06:26:35;8.80;99.90
70947;DHT22;58605;48.700;8.760;2023-02-24T06:29:02;8.90;99.90
70947;DHT22;58605;48.700;8.760;2023-02-24T06:31:30;8.90;99.90
70947;DHT22;58605;48.700;8.760;2023-02-24T06:33:56;8.80;99.90
70947;DHT22;58605;48.700;8.760;2023-02-24T06:36:22;8.80;99.90
70947;DHT22;58605;48.700;8.760;2023-02-24T06:38:49;8.90;99.90
70947;DHT22;58605;48.700;8.760;2023-02-24T06:41:17;8.90;99.90
70947;DHT22;58605;48.700;8.760;2023-02-24T06:43:44;8.80;99.90
70947;DHT22;58605;48.700;8.760;2023-02-24T06:46:14;8.80;99.90
70947;DHT22;58605;48.700;8.760;2023-02-24T06:48:40;8.70;99.90
70947;DHT22;58605;48.700;8.760;2023-02-24T06:51:08;8.50;99.90
70947;DHT22;58605;48.700;8.760;2023-02-24T06:53:36;8.50;99.90
70947;DHT22;58605;48.700;8.760;2023-02-24T06:56:10;8.50;99.90
70947;DHT22;58605;48.700;8.760;2023-02-24T06:58:40;8.50;99.90
70947;DHT22;58605;48.700;8.760;2023-02-24T07:01:09;8.60;99.90
70947;DHT22;58605;48.700;8.760;2023-02-24T07:03:36;8.70;99.90
70947;DHT22;58605;48.700;8.760;2023-02-24T07:06:06;8.70;99.90
70947;DHT22;58605;48.700;8.760;2023-02-24T07:08:51;8.70;99.90
70947;DHT22;58605;48.700;8.760;2023-02-24T07:11:19;8.70;99.90
70947;DHT22;58605;48.700;8.760;2023-02-24T07:13:46;8.50;99.90
70947;DHT22;58605;48.700;8.760;2023-02-24T07:16:13;8.30;99.90
70947;DHT22;58605;48.700;8.760;2023-02-24T07:18:41;8.20;99.90
70947;DHT22;58605;48.700;8.760;2023-02-24T07:21:09;8.40;99.90
70947;DHT22;58605;48.700;8.760;2023-02-24T07:23:38;8.40;99.90
70947;DHT22;58605;48.700;8.760;2023-02-24T07:26:09;8.40;99.90
70947;DHT22;58605;48.700;8.760;2023-02-24T07:28:38;8.30;99.90
70947;DHT22;58605;48.700;8.760;2023-02-24T07:31:06;8.30;99.90
70947;DHT22;58605;48.700;8.760;2023-02-24T07:33:33;8.50;99.90
70947;DHT22;58605;48.700;8.760;2023-02-24T07:35:59;8.50;99.90
70947;DHT22;58605;48.700;8.760;2023-02-24T07:38:25;8.50;99.90
70947;DHT22;58605;48.700;8.760;2023-02-24T07:40:56;8.60;99.90
70947;DHT22;58605;48.700;8.760;2023-02-24T07:43:22;8.60;99.90
70947;DHT22;58605;48.700;8.760;2023-02-24T07:45:50;8.70;99.90
70947;DHT22;58605;48.700;8.760;2023-02-24T07:48:17;8.80;99.90
70947;DHT22;58605;48.700;8.760;2023-02-24T07:50:43;8.90;99.90
70947;DHT22;58605;48.700;8.760;2023-02-24T07:53:09;9.00;99.90
70947;DHT22;58605;48.700;8.760;2023-02-24T07:55:35;9.10;99.90
70947;DHT22;58605;48.700;8.760;2023-02-24T07:58:02;9.10;99.90
70947;DHT22;58605;48.700;8.760;2023-02-24T08:00:30;9.10;99.90
70947;DHT22;58605;48.700;8.760;2023-02-24T08:03:15;9.10;99.90
70947;DHT22;58605;48.700;8.760;2023-02-24T08:05:41;9.00;99.90
70947;DHT22;58605;48.700;8.760;2023-02-24T08:08:08;9.00;99.90
70947;DHT22;58605;48.700;8.760;2023-02-24T08:10:34;8.90;99.90
70947;DHT22;58605;48.700;8.760;2023-02-24T08:13:02;8.90;99.90
70947;DHT22;58605;48.700;8.760;2023-02-24T08:15:29;9.00;99.90
70947;DHT22;58605;48.700;8.760;2023-02-24T08:17:59;8.90;99.90
70947;DHT22;58605;48.700;8.760;2023-02-24T08:20:28;8.90;99.90
70947;DHT22;58605;48.700;8.760;2023-02-24T08:23:13;9.00;99.90
70947;DHT22;58605;48.700;8.760;2023-02-24T08:25:39;9.10;99.90
70947;DHT22;58605;48.700;8.760;2023-02-24T08:28:09;9.20;99.90
70947;DHT22;58605;48.700;8.760;2023-02-24T08:30:38;9.20;99.90
70947;DHT22;58605;48.700;8.760;2023-02-24T08:33:06;9.20;99.90
70947;DHT22;58605;48.700;8.760;2023-02-24T08:35:36;9.20;99.90
70947;DHT22;58605;48.700;8.760;2023-02-24T08:38:04;9.20;99.90
70947;DHT22;58605;48.700;8.760;2023-02-24T08:40:34;9.30;99.90
70947;DHT22;58605;48.700;8.760;2023-02-24T08:43:02;9.00;99.90
70947;DHT22;58605;48.700;8.760;2023-02-24T08:45:41;9.00;99.90
70947;DHT22;58605;48.700;8.760;2023-02-24T08:48:09;9.00;99.90
70947;DHT22;58605;48.700;8.760;2023-02-24T08:50:44;9.00;99.90
70947;DHT22;58605;48.700;8.760;2023-02-24T08:53:12;9.10;99.90
70947;DHT22;58605;48.700;8.760;2023-02-24T08:55:43;9.30;99.90
70947;DHT22;58605;48.700;8.760;2023-02-24T08:58:09;9.20;99.90
70947;DHT22;58605;48.700;8.760;2023-02-24T09:00:43;9.20;99.90
70947;DHT22;58605;48.700;8.760;2023-02-24T09:03:21;9.30;99.90
70947;DHT22;58605;48.700;8.760;2023-02-24T09:06:01;9.60;99.90
70947;DHT22;58605;48.700;8.760;2023-02-24T09:08:30;9.60;99.90
70947;DHT22;58605;48.700;8.760;2023-02-24T09:11:00;9.60;99.90
70947;DHT22;58605;48.700;8.760;2023-02-24T09:13:42;9.80;99.90
70947;DHT22;58605;48.700;8.760;2023-02-24T09:16:17;9.70;99.90
70947;DHT22;58605;48.700;8.760;2023-02-24T09:18:43;9.90;99.90
70947;DHT22;58605;48.700;8.760;2023-02-24T09:21:12;10.00;99.90
70947;DHT22;58605;48.700;8.760;2023-02-24T09:23:58;9.90;99.90
70947;DHT22;58605;48.700;8.760;2023-02-24T09:26:25;9.90;99.90
70947;DHT22;58605;48.700;8.760;2023-02-24T09:28:51;9.80;99.90
70947;DHT22;58605;48.700;8.760;2023-02-24T09:31:22;9.70;99.90
70947;DHT22;58605;48.700;8.760;2023-02-24T09:33:49;9.80;99.90
70947;DHT22;58605;48.700;8.760;2023-02-24T09:36:20;9.90;99.90
70947;DHT22;58605;48.700;8.760;2023-02-24T09:38:54;10.00;99.90
70947;DHT22;58605;48.700;8.760;2023-02-24T09:41:29;9.80;99.90
70947;DHT22;58605;48.700;8.760;2023-02-24T09:44:02;9.70;99.90
70947;DHT22;58605;48.700;8.760;2023-02-24T09:46:36;9.70;99.90
70947;DHT22;58605;48.700;8.760;2023-02-24T09:49:10;9.70;99.90
70947;DHT22;58605;48.700;8.760;2023-02-24T09:51:39;9.70;99.90
70947;DHT22;58605;48.700;8.760;2023-02-24T09:54:19;9.80;99.90
70947;DHT22;58605;48.700;8.760;2023-02-24T09:56:53;9.80;99.90
70947;DHT22;58605;48.700;8.760;2023-02-24T09:59:39;10.00;99.90
70947;DHT22;58605;48.700;8.760;2023-02-24T10:02:23;10.00;99.90
70947;DHT22;58605;48.700;8.760;2023-02-24T10:05:01;10.30;99.90
70947;DHT22;58605;48.700;8.760;2023-02-24T10:07:35;10.30;99.90
70947;DHT22;58605;48.700;8.760;2023-02-24T10:10:10;10.40;99.90
70947;DHT22;58605;48.700;8.760;2023-02-24T10:12:46;10.60;99.90
70947;DHT22;58605;48.700;8.760;2023-02-24T10:15:15;10.60;99.90
70947;DHT22;58605;48.700;8.760;2023-02-24T10:17:49;10.40;99.90
70947;DHT22;58605;48.700;8.760;2023-02-24T10:20:18;10.40;99.90
70947;DHT22;58605;48.700;8.760;2023-02-24T10:23:09;10.40;99.90
70947;DHT22;58605;48.700;8.760;2023-02-24T10:25:42;10.50;99.90
70947;DHT22;58605;48.700;8.760;2023-02-24T10:28:27;10.50;99.90
70947;DHT22;58605;48.700;8.760;2023-02-24T10:31:08;10.60;99.90
70947;DHT22;58605;48.700;8.760;2023-02-24T10:33:53;10.30;99.90
70947;DHT22;58605;48.700;8.760;2023-02-24T10:36:22;10.10;99.00
70947;DHT22;58605;48.700;8.760;2023-02-24T10:38:56;10.10;97.40
70947;DHT22;58605;48.700;8.760;2023-02-24T10:41:23;9.80;97.40
70947;DHT22;58605;48.700;8.760;2023-02-24T10:43:54;9.60;99.90
70947;DHT22;58605;48.700;8.760;2023-02-24T10:46:23;9.50;99.90
70947;DHT22;58605;48.700;8.760;2023-02-24T10:48:53;9.50;99.90
70947;DHT22;58605;48.700;8.760;2023-02-24T10:51:28;9.60;99.90
70947;DHT22;58605;48.700;8.760;2023-02-24T10:54:11;9.70;99.90
70947;DHT22;58605;48.700;8.760;2023-02-24T10:56:50;9.80;99.90
70947;DHT22;58605;48.700;8.760;2023-02-24T10:59:20;10.00;99.90
70947;DHT22;58605;48.700;8.760;2023-02-24T11:01:52;10.00;99.90
70947;DHT22;58605;48.700;8.760;2023-02-24T11:04:31;10.00;99.90
70947;DHT22;58605;48.700;8.760;2023-02-24T11:07:02;10.10;99.90
70947;DHT22;58605;48.700;8.760;2023-02-24T11:09:36;10.10;99.90
70947;DHT22;58605;48.700;8.760;2023-02-24T11:12:20;10.10;99.90
70947;DHT22;58605;48.700;8.760;2023-02-24T11:15:14;10.30;99.90
70947;DHT22;58605;48.700;8.760;2023-02-24T11:18:00;10.20;99.90
70947;DHT22;58605;48.700;8.760;2023-02-24T11:20:29;10.10;99.90
70947;DHT22;58605;48.700;8.760;2023-02-24T11:23:01;10.10;99.90
70947;DHT22;58605;48.700;8.760;2023-02-24T11:25:35;10.10;99.90
70947;DHT22;58605;48.700;8.760;2023-02-24T11:28:05;10.30;99.30
70947;DHT22;58605;48.700;8.760;2023-02-24T11:30:46;10.30;99.40
70947;DHT22;58605;48.700;8.760;2023-02-24T11:33:23;10.20;99.90
70947;DHT22;58605;48.700;8.760;2023-02-24T11:36:01;10.10;99.10
70947;DHT22;58605;48.700;8.760;2023-02-24T11:38:37;10.20;98.60
70947;DHT22;58605;48.700;8.760;2023-02-24T11:41:11;10.20;98.10
70947;DHT22;58605;48.700;8.760;2023-02-24T11:43:46;10.20;97.10
70947;DHT22;58605;48.700;8.760;2023-02-24T11:46:18;10.30;95.80
70947;DHT22;58605;48.700;8.760;2023-02-24T11:48:49;10.20;96.90
70947;DHT22;58605;48.700;8.760;2023-02-24T11:51:18;10.20;97.80
70947;DHT22;58605;48.700;8.760;2023-02-24T11:53:50;10.40;96.70
70947;DHT22;58605;48.700;8.760;2023-02-24T11:56:22;10.40;96.30
70947;DHT22;58605;48.700;8.760;2023-02-24T11:58:55;10.40;95.30
70947;DHT22;58605;48.700;8.760;2023-02-24T12:01:28;10.40;94.50
70947;DHT22;58605;48.700;8.760;2023-02-24T12:04:02;10.40;95.20
70947;DHT22;58605;48.700;8.760;2023-02-24T12:06:34;10.50;93.60
70947;DHT22;58605;48.700;8.760;2023-02-24T12:09:07;10.50;92.80
70947;DHT22;58605;48.700;8.760;2023-02-24T12:11:44;10.50;93.60
70947;DHT22;58605;48.700;8.760;2023-02-24T12:14:18;10.30;95.10
70947;DHT22;58605;48.700;8.760;2023-02-24T12:16:50;9.90;97.50
70947;DHT22;58605;48.700;8.760;2023-02-24T12:19:23;9.60;99.90
70947;DHT22;58605;48.700;8.760;2023-02-24T12:21:56;9.70;99.90
70947;DHT22;58605;48.700;8.760;2023-02-24T12:24:23;9.70;99.90
70947;DHT22;58605;48.700;8.760;2023-02-24T12:26:59;9.70;99.90
70947;DHT22;58605;48.700;8.760;2023-02-24T12:29:44;9.70;99.90
70947;DHT22;58605;48.700;8.760;2023-02-24T12:32:18;9.70;99.90
70947;DHT22;58605;48.700;8.760;2023-02-24T12:34:58;9.60;99.90
70947;DHT22;58605;48.700;8.760;2023-02-24T12:37:41;9.50;99.90
70947;DHT22;58605;48.700;8.760;2023-02-24T12:40:15;9.60;99.90
70947;DHT22;58605;48.700;8.760;2023-02-24T12:42:55;9.90;99.90
70947;DHT22;58605;48.700;8.760;2023-02-24T12:45:32;9.70;99.90
70947;DHT22;58605;48.700;8.760;2023-02-24T12:48:04;9.80;99.90
70947;DHT22;58605;48.700;8.760;2023-02-24T12:50:41;9.60;99.90
70947;DHT22;58605;48.700;8.760;2023-02-24T12:53:17;9.50;99.90
70947;DHT22;58605;48.700;8.760;2023-02-24T12:55:52;9.50;99.90
70947;DHT22;58605;48.700;8.760;2023-02-24T12:58:24;9.40;99.90
70947;DHT22;58605;48.700;8.760;2023-02-24T13:00:59;9.40;99.90
70947;DHT22;58605;48.700;8.760;2023-02-24T13:03:34;9.50;99.90
70947;DHT22;58605;48.700;8.760;2023-02-24T13:06:08;9.70;99.90
70947;DHT22;58605;48.700;8.760;2023-02-24T13:08:50;9.60;99.90
70947;DHT22;58605;48.700;8.760;2023-02-24T13:11:26;9.50;99.90
70947;DHT22;58605;48.700;8.760;2023-02-24T13:14:01;9.30;99.90
70947;DHT22;58605;48.700;8.760;2023-02-24T13:16:30;9.60;99.90
70947;DHT22;58605;48.700;8.760;2023-02-24T13:19:16;9.50;99.90
70947;DHT22;58605;48.700;8.760;2023-02-24T13:21:53;9.50;99.90
70947;DHT22;58605;48.700;8.760;2023-02-24T13:24:21;9.50;99.90
70947;DHT22;58605;48.700;8.760;2023-02-24T13:26:48;9.60;99.90
70947;DHT22;58605;48.700;8.760;2023-02-24T13:29:15;9.50;99.90
70947;DHT22;58605;48.700;8.760;2023-02-24T13:31:43;9.60;99.90
70947;DHT22;58605;48.700;8.760;2023-02-24T13:34:26;9.70;99.90
70947;DHT22;58605;48.700;8.760;2023-02-24T13:36:53;9.90;99.90
70947;DHT22;58605;48.700;8.760;2023-02-24T13:39:23;9.90;99.90
70947;DHT22;58605;48.700;8.760;2023-02-24T13:41:49;10.00;99.90
70947;DHT22;58605;48.700;8.760;2023-02-24T13:44:27;10.10;99.60
70947;DHT22;58605;48.700;8.760;2023-02-24T13:47:14;10.10;99.60
70947;DHT22;58605;48.700;8.760;2023-02-24T13:49:48;10.10;99.60
70947;DHT22;58605;48.700;8.760;2023-02-24T13:52:25;10.30;95.30
70947;DHT22;58605;48.700;8.760;2023-02-24T13:55:13;10.40;92.50
70947;DHT22;58605;48.700;8.760;2023-02-24T14:01:01;10.50;93.90
70947;DHT22;58605;48.700;8.760;2023-02-24T14:03:29;10.50;94.40
70947;DHT22;58605;48.700;8.760;2023-02-24T14:05:56;10.60;92.40
70947;DHT22;58605;48.700;8.760;2023-02-24T14:08:34;10.70;91.10
70947;DHT22;58605;48.700;8.760;2023-02-24T14:11:02;10.60;92.10
70947;DHT22;58605;48.700;8.760;2023-02-24T14:13:31;10.70;91.20
70947;DHT22;58605;48.700;8.760;2023-02-24T14:16:03;10.70;91.90
70947;DHT22;58605;48.700;8.760;2023-02-24T14:18:31;10.80;90.90
70947;DHT22;58605;48.700;8.760;2023-02-24T14:20:57;10.90;90.50
70947;DHT22;58605;48.700;8.760;2023-02-24T14:23:24;10.90;90.10
70947;DHT22;58605;48.700;8.760;2023-02-24T14:25:53;10.80;89.40
70947;DHT22;58605;48.700;8.760;2023-02-24T14:28:23;10.80;88.50
70947;DHT22;58605;48.700;8.760;2023-02-24T14:30:52;10.80;90.00
70947;DHT22;58605;48.700;8.760;2023-02-24T14:33:26;10.80;89.10
70947;DHT22;58605;48.700;8.760;2023-02-24T14:35:53;10.70;90.10
70947;DHT22;58605;48.700;8.760;2023-02-24T14:38:32;10.70;90.40
70947;DHT22;58605;48.700;8.760;2023-02-24T14:40:59;10.70;89.90
70947;DHT22;58605;48.700;8.760;2023-02-24T14:43:26;10.60;90.40
70947;DHT22;58605;48.700;8.760;2023-02-24T14:45:52;10.60;90.80
70947;DHT22;58605;48.700;8.760;2023-02-24T14:48:25;10.60;90.40
70947;DHT22;58605;48.700;8.760;2023-02-24T14:50:51;10.70;90.20
70947;DHT22;58605;48.700;8.760;2023-02-24T14:53:21;10.50;90.70
70947;DHT22;58605;48.700;8.760;2023-02-24T14:55:50;10.50;90.60
70947;DHT22;58605;48.700;8.760;2023-02-24T14:58:23;10.50;91.10
70947;DHT22;58605;48.700;8.760;2023-02-24T15:00:52;10.20;91.70
70947;DHT22;58605;48.700;8.760;2023-02-24T15:03:24;10.30;91.70
70947;DHT22;58605;48.700;8.760;2023-02-24T15:05:53;10.30;92.10
70947;DHT22;58605;48.700;8.760;2023-02-24T15:08:28;10.20;92.30
70947;DHT22;58605;48.700;8.760;2023-02-24T15:10:56;9.80;94.40
70947;DHT22;58605;48.700;8.760;2023-02-24T15:13:28;9.60;96.30
70947;DHT22;58605;48.700;8.760;2023-02-24T15:16:04;9.90;95.40
70947;DHT22;58605;48.700;8.760;2023-02-24T15:18:32;9.90;95.20
70947;DHT22;58605;48.700;8.760;2023-02-24T15:20:59;9.60;96.10
70947;DHT22;58605;48.700;8.760;2023-02-24T15:23:29;9.80;95.90
70947;DHT22;58605;48.700;8.760;2023-02-24T15:25:57;9.90;95.20
70947;DHT22;58605;48.700;8.760;2023-02-24T15:28:24;10.00;94.60
70947;DHT22;58605;48.700;8.760;2023-02-24T15:31:00;10.10;94.30
70947;DHT22;58605;48.700;8.760;2023-02-24T15:33:34;10.20;93.60
70947;DHT22;58605;48.700;8.760;2023-02-24T15:36:05;10.30;93.30
70947;DHT22;58605;48.700;8.760;2023-02-24T15:38:35;10.30;93.00
70947;DHT22;58605;48.700;8.760;2023-02-24T15:41:04;10.40;92.80
70947;DHT22;58605;48.700;8.760;2023-02-24T15:43:33;10.20;92.90
70947;DHT22;58605;48.700;8.760;2023-02-24T15:45:59;10.20;93.10
70947;DHT22;58605;48.700;8.760;2023-02-24T15:48:26;10.00;93.40
70947;DHT22;58605;48.700;8.760;2023-02-24T15:50:58;10.00;93.70
70947;DHT22;58605;48.700;8.760;2023-02-24T15:53:26;10.00;93.80
70947;DHT22;58605;48.700;8.760;2023-02-24T15:55:52;10.00;94.10
70947;DHT22;58605;48.700;8.760;2023-02-24T15:58:21;10.10;94.30
70947;DHT22;58605;48.700;8.760;2023-02-24T16:00:47;10.10;94.80
70947;DHT22;58605;48.700;8.760;2023-02-24T16:03:17;10.00;95.10
70947;DHT22;58605;48.700;8.760;2023-02-24T16:05:44;9.90;96.80
70947;DHT22;58605;48.700;8.760;2023-02-24T16:08:14;9.90;97.40
70947;DHT22;58605;48.700;8.760;2023-02-24T16:10:41;10.00;97.00
70947;DHT22;58605;48.700;8.760;2023-02-24T16:13:16;10.00;97.00
70947;DHT22;58605;48.700;8.760;2023-02-24T16:15:44;10.00;97.60
70947;DHT22;58605;48.700;8.760;2023-02-24T16:18:14;10.10;98.50